Time;durP1;ratioP1;P1;durP2;ratioP2;P2;SDS_P1;SDS_P2;PMS_P1;PMS_P2;Temp;Humidity;BMP_temperature;BMP_pressure;BME280_temperature;BME280_humidity;BME280_pressure;Samples;Min_cycle;Max_cycle;Signal;HPM_P1;HPM_P2
2021/07/04 00:02:35;;;;;;;;;;;;;;;;;;;;;
2021/07/04 00:05:12;;;;;;;0.20;0.20;;;;;;;15.91;73.30;92434.91;6253575;22;20043;-94
2021/07/04 00:07:56;;;;;;;;;;;;;;;;;;;;;
2021/07/04 00:10:54;;;;;;;0.45;0.45;;;;;;;15.94;73.76;92444.84;6254383;22;20494;-94
2021/07/04 00:13:40;;;;;;;;;;;;;;;;;;;;;
2021/07/04 00:16:21;;;;;;;0.43;0.30;;;;;;;15.81;72.93;92422.88;6260165;22;20087;-92
2021/07/04 00:18:55;;;;;;;0.20;0.20;;;;;;;15.77;73.13;92424.59;6254052;22;20065;-94
2021/07/04 00:22:00;;;;;;;0.17;0.17;;;;;;;15.72;73.29;92424.03;6231383;22;20018;-92
2021/07/04 00:24:46;;;;;;;0.10;0.10;;;;;;;15.72;73.47;92424.03;6234754;22;20099;-93
2021/07/04 00:27:51;;;;;;;;;;;;;;;;;;;;;
2021/07/04 00:30:43;;;;;;;0.20;0.20;;;;;;;15.71;73.64;92414.53;6230883;22;20012;-94
2021/07/04 00:34:02;;;;;;;;;;;;;;;;;;;;;
2021/07/04 00:40:10;;;;;;;0.10;0.10;;;;;;;15.58;73.65;92403.88;6235453;22;20035;-93
2021/07/04 00:42:58;;;;;;;;;;;;;;;;;;;;;
2021/07/04 00:45:27;;;;;;;0.10;0.10;;;;;;;15.58;74.38;92414.44;6254055;22;20015;-93
2021/07/04 00:48:11;;;;;;;;;;;;;;;;;;;;;
2021/07/04 00:50:55;;;;;;;0.20;0.20;;;;;;;15.51;74.97;92408.09;6253791;22;20012;-92
2021/07/04 00:53:54;;;;;;;0.47;0.38;;;;;;;15.50;75.13;92403.91;6256873;22;20055;-94
2021/07/04 00:56:37;;;;;;;;;;;;;;;;;;;;;
2021/07/04 00:59:21;;;;;;;0.20;0.20;;;;;;;15.43;73.62;92420.25;6259234;22;20086;-92
2021/07/04 01:01:57;;;;;;;0.10;0.10;;;;;;;15.40;73.67;92426.13;6229120;22;19999;-93
2021/07/04 01:04:54;;;;;;;0.32;0.32;;;;;;;15.35;73.05;92421.03;6238031;22;20064;-93
2021/07/04 01:07:49;;;;;;;;;;;;;;;;;;;;;
2021/07/04 01:11:04;;;;;;;0.10;0.10;;;;;;;15.25;73.39;92409.00;6253432;22;20015;-92
2021/07/04 01:14:05;;;;;;;;;;;;;;;;;;;;;
2021/07/04 01:16:45;;;;;;;0.15;0.15;;;;;;;15.23;72.93;92399.84;6253753;22;20284;-92
2021/07/04 01:19:26;;;;;;;;;;;;;;;;;;;;;
2021/07/04 01:22:19;;;;;;;;;;;;;;;;;;;;;
2021/07/04 01:25:05;;;;;;;0.10;0.10;;;;;;;15.23;73.22;92389.31;6253428;22;20011;-93
2021/07/04 01:28:04;;;;;;;;;;;;;;;;;;;;;
2021/07/04 01:30:46;;;;;;;0.10;0.10;;;;;;;15.32;71.78;92387.41;6252896;22;20085;-93
2021/07/04 01:33:32;;;;;;;;;;;;;;;;;;;;;
2021/07/04 01:36:14;;;;;;;0.32;0.30;;;;;;;15.17;71.72;92386.06;6231454;22;20012;-94
2021/07/04 01:38:57;;;;;;;0.13;0.13;;;;;;;15.18;71.78;92382.34;6230583;22;20046;-92
2021/07/04 01:41:34;;;;;;;0.10;0.10;;;;;;;15.19;72.67;92389.91;6252489;22;20024;-93
2021/07/04 01:44:10;;;;;;;0.20;0.20;;;;;;;15.14;73.39;92376.16;6233810;22;20087;-94
2021/07/04 01:47:36;;;;;;;0.30;0.30;;;;;;;15.13;73.55;92385.94;6228809;22;20016;-93
2021/07/04 01:50:28;;;;;;;0.10;0.10;;;;;;;15.11;73.80;92384.69;6227382;22;20015;-92
2021/07/04 01:53:03;;;;;;;0.10;0.10;;;;;;;15.13;73.89;92395.69;6227617;22;20061;-92
2021/07/04 01:58:49;;;;;;;0.20;0.20;;;;;;;15.13;73.69;92395.69;6251615;22;20008;-92
2021/07/04 02:01:32;;;;;;;0.10;0.10;;;;;;;15.20;74.12;92398.63;6251855;22;20454;-93
2021/07/04 02:04:15;;;;;;;0.10;0.10;;;;;;;15.14;73.82;92400.66;6204837;22;20557;-93
2021/07/04 02:07:07;;;;;;;0.30;0.30;;;;;;;15.19;73.72;92411.00;6232606;22;20051;-93
2021/07/04 02:10:18;;;;;;;0.20;0.20;;;;;;;15.26;73.33;92422.94;6227931;22;20023;-93
2021/07/04 02:13:01;;;;;;;0.25;0.25;;;;;;;15.17;73.17;92407.16;6229625;22;20407;-93
2021/07/04 02:15:47;;;;;;;0.20;0.20;;;;;;;15.19;72.37;92405.72;6254470;22;20007;-92
2021/07/04 02:18:58;;;;;;;;;;;;;;;;;;;;;
2021/07/04 02:21:53;;;;;;;0.20;0.20;;;;;;;15.25;72.21;92416.13;6280398;22;20022;-94
2021/07/04 02:25:14;;;;;;;;;;;;;;;;;;;;;
2021/07/04 02:28:00;;;;;;;0.10;0.10;;;;;;;15.41;72.23;92430.31;6262112;22;20038;-92
2021/07/04 02:34:19;;;;;;;;;;;;;;;;;;;;;
2021/07/04 02:37:03;;;;;;;0.10;0.10;;;;;;;15.37;72.10;92424.13;6253375;22;20094;-92
2021/07/04 02:42:50;;;;;;;;;;;;;;;15.39;72.23;92441.19;6235891;22;20008;-91
2021/07/04 02:45:35;;;;;;;;;;;;;;;;;;;;;
2021/07/04 02:48:50;;;;;;;0.10;0.10;;;;;;;15.34;72.04;92416.88;6279088;22;20083;-92
2021/07/04 02:51:36;;;;;;;0.28;0.22;;;;;;;15.33;71.68;92410.81;6227443;22;20012;-93
2021/07/04 02:54:42;;;;;;;;;;;;;;;;;;;;;
2021/07/04 02:57:34;;;;;;;0.13;0.13;;;;;;;15.53;71.36;92403.28;6264753;22;20008;-92
2021/07/04 03:00:29;;;;;;;0.38;0.38;;;;;;;15.54;71.98;92397.69;6257175;22;20078;-92
2021/07/04 03:03:34;;;;;;;;;;;;;;;;;;;;;
2021/07/04 03:06:14;;;;;;;0.50;0.50;;;;;;;15.46;73.02;92403.00;6249261;23;20014;-93
2021/07/04 03:12:04;;;;;;;0.20;0.20;;;;;;;15.29;72.94;92399.34;6215667;23;20020;-92
2021/07/04 03:14:50;;;;;;;0.20;0.20;;;;;;;15.30;72.85;92408.03;6221484;23;20012;-93
2021/07/04 03:17:40;;;;;;;0.20;0.20;;;;;;;15.38;72.62;92407.25;6176602;23;20016;-93
2021/07/04 03:20:29;;;;;;;;;;;;;;;;;;;;;
2021/07/04 03:23:17;;;;;;;0.20;0.20;;;;;;;15.22;72.89;92393.81;6249348;23;20083;-92
2021/07/04 03:26:32;;;;;;;0.15;0.15;;;;;;;15.20;72.14;92386.22;6245219;23;20443;-93
2021/07/04 03:29:35;;;;;;;;;;;;;;;;;;;;;
2021/07/04 03:32:32;;;;;;;0.30;0.30;;;;;;;15.27;71.44;92379.69;6210594;23;19985;-92
2021/07/04 03:35:03;;;;;;;0.22;0.22;;;;;;;15.26;72.28;92378.09;6149283;23;20024;-92
2021/07/04 03:37:54;;;;;;;0.35;0.35;;;;;;;15.21;72.13;92376.44;6140460;23;20048;-92
2021/07/04 03:40:46;;;;;;;;;;;;;;;;;;;;;
2021/07/04 03:43:58;;;;;;;0.10;0.10;;;;;;;15.25;72.07;92374.72;6187450;23;20419;-92
2021/07/04 03:46:26;;;;;;;0.35;0.35;;;;;;;15.22;72.26;92371.91;6187717;23;20069;-92
2021/07/04 03:49:16;;;;;;;0.10;0.10;;;;;;;15.16;72.17;92380.00;6163022;23;20456;-92
2021/07/04 03:52:07;;;;;;;0.20;0.20;;;;;;;15.19;71.87;92381.25;6143788;23;20498;-93
2021/07/04 03:54:42;;;;;;;0.10;0.10;;;;;;;15.23;71.30;92378.75;6213692;23;20098;-92
2021/07/04 03:57:31;;;;;;;0.20;0.20;;;;;;;15.29;70.50;92377.47;6181006;23;20008;-91
2021/07/04 04:00:25;;;;;;;0.20;0.20;;;;;;;15.35;70.09;92376.22;6225067;23;20008;-92
2021/07/04 04:03:14;;;;;;;0.10;0.10;;;;;;;15.33;70.21;92346.75;6246837;22;20004;-93
2021/07/04 04:06:10;;;;;;;;;;;;;;;;;;;;;
2021/07/04 04:09:15;;;;;;;;;;;;;;;;;;;;;
2021/07/04 04:12:21;;;;;;;0.15;0.15;;;;;;;15.50;69.59;92341.38;6250510;23;20095;-93
2021/07/04 04:15:03;;;;;;;0.17;0.17;;;;;;;15.56;69.42;92352.53;6226988;23;20103;-93
2021/07/04 04:17:57;;;;;;;0.22;0.22;;;;;;;15.52;69.46;92354.25;6223522;23;20016;-93
2021/07/04 04:20:44;;;;;;;;;;;;;;;;;;;;;
2021/07/04 04:23:42;;;;;;;0.25;0.25;;;;;;;15.60;69.21;92370.03;6229074;23;20094;-92
2021/07/04 04:26:39;;;;;;;0.30;0.30;;;;;;;15.64;69.49;92383.34;6205403;23;20012;-93
2021/07/04 04:29:36;;;;;;;0.13;0.13;;;;;;;15.59;70.09;92371.13;6174488;23;20107;-92
2021/07/04 04:32:39;;;;;;;0.10;0.10;;;;;;;15.66;70.63;92369.84;6201165;23;20473;-92
2021/07/04 04:35:40;;;;;;;;;;;;;;;;;;;;;
2021/07/04 04:38:33;;;;;;;0.20;0.20;;;;;;;15.72;70.28;92371.25;6203009;23;20015;-92
2021/07/04 04:41:19;;;;;;;0.10;0.10;;;;;;;15.78;70.14;92376.00;6198471;23;20008;-92
2021/07/04 04:43:59;;;;;;;0.35;0.35;;;;;;;15.72;70.03;92364.09;6198096;23;20015;-93
2021/07/04 04:46:46;;;;;;;;;;;;;;;;;;;;;
2021/07/04 04:50:05;;;;;;;;;;;;;;;;;;;;;
2021/07/04 04:52:42;;;;;;;0.20;0.20;;;;;;;15.58;71.57;92361.66;6176453;23;20012;-92
2021/07/04 04:55:22;;;;;;;;;;;;;;;;;;;;;
2021/07/04 04:57:58;;;;;;;0.30;0.30;;;;;;;15.77;71.48;92357.84;6216688;23;20523;-92
2021/07/04 05:00:47;;;;;;;0.20;0.20;;;;;;;15.79;70.70;92350.38;6165495;23;20023;-90
2021/07/04 05:03:28;;;;;;;0.20;0.20;;;;;;;15.90;70.48;92351.56;6166783;23;20412;-89
2021/07/04 05:06:14;;;;;;;0.30;0.30;;;;;;;15.97;70.32;92351.03;6216770;23;20424;-90
2021/07/04 05:09:21;;;;;;;0.25;0.25;;;;;;;16.10;70.35;92363.22;6191621;23;20016;-90
2021/07/04 05:12:12;;;;;;;0.10;0.10;;;;;;;16.10;70.06;92351.84;6167189;23;20004;-90
2021/07/04 05:15:03;;;;;;;0.10;0.10;;;;;;;16.14;69.69;92358.03;6195680;23;20012;-91
2021/07/04 05:17:41;;;;;;;0.22;0.22;;;;;;;16.27;70.24;92372.84;6190482;23;20112;-89
2021/07/04 05:20:26;;;;;;;;;;;;;;;;;;;;;
2021/07/04 05:23:12;;;;;;;0.40;0.40;;;;;;;16.43;69.89;92381.72;6190745;23;20008;-91
2021/07/04 05:25:58;;;;;;;0.38;0.35;;;;;;;16.55;70.15;92386.28;6189701;23;20023;-90
2021/07/04 05:28:57;;;;;;;;;;;;;;;;;;;;;
2021/07/04 05:31:55;;;;;;;0.20;0.20;;;;;;;16.74;68.74;92388.44;6190964;23;20083;-90
2021/07/04 05:34:39;;;;;;;0.63;0.47;;;;;;;16.97;68.66;92388.06;6192659;23;20095;-90
2021/07/04 05:37:29;;;;;;;0.20;0.20;;;;;;;17.08;68.29;92373.31;6192819;23;20499;-91
2021/07/04 05:40:03;;;;;;;0.20;0.20;;;;;;;17.32;67.88;92393.00;6191737;23;20120;-89
2021/07/04 05:42:41;;;;;;;0.45;0.35;;;;;;;17.50;67.05;92389.03;6166927;23;20043;-89
2021/07/04 05:45:36;;;;;;;0.20;0.20;;;;;;;17.64;69.35;92376.22;6167542;23;20436;-89
2021/07/04 05:48:09;;;;;;;0.10;0.10;;;;;;;17.97;65.82;92387.78;6167394;23;20017;-90
2021/07/04 05:50:38;;;;;;;0.40;0.40;;;;;;;18.78;64.36;92372.66;6190024;23;20020;-89
2021/07/04 05:56:39;;;;;;;0.40;0.40;;;;;;;23.67;48.04;92380.59;6216542;23;20024;-93
2021/07/04 05:59:22;;;;;;;0.50;0.50;;;;;;;25.09;46.56;92368.31;6169962;23;20091;-91
2021/07/04 06:02:05;;;;;;;0.50;0.50;;;;;;;25.51;47.05;92374.91;6204336;23;20066;-91
2021/07/04 06:04:50;;;;;;;0.52;0.50;;;;;;;24.00;48.85;92378.16;6150743;23;20020;-90
2021/07/04 06:07:38;;;;;;;0.32;0.32;;;;;;;23.93;51.34;92386.13;6198131;23;20091;-92
2021/07/04 06:10:12;;;;;;;0.43;0.43;;;;;;;24.42;48.32;92382.97;6196368;23;20019;-91
2021/07/04 06:12:48;;;;;;;0.70;0.70;;;;;;;26.04;44.58;92383.34;6246960;23;20511;-91
2021/07/04 06:15:55;;;;;;;0.40;0.40;;;;;;;27.16;40.75;92381.84;6223836;23;20083;-92
2021/07/04 06:29:50;;;;;;;0.40;0.40;;;;;;;30.76;33.75;92371.69;6126276;23;20073;-93
2021/07/04 06:32:46;;;;;;;0.50;0.50;;;;;;;30.70;33.38;92370.66;6086550;23;20153;-92
2021/07/04 06:35:55;;;;;;;0.45;0.45;;;;;;;26.60;42.29;92379.03;6104494;23;20381;-92
2021/07/04 06:38:50;;;;;;;;;;;;;;;;;;;;;
2021/07/04 06:45:50;;;;;;;;;;;;;;;;;;;;;
2021/07/04 06:49:09;;;;;;;0.38;0.38;;;;;;;24.57;48.46;92370.47;6226636;23;20072;-93
2021/07/04 06:59:47;;;;;;;;;;;;;;;;;;;;;
2021/07/04 07:03:06;;;;;;;0.20;0.20;;;;;;;21.58;59.41;92389.16;6208623;23;20491;-91
2021/07/04 07:06:17;;;;;;;;;;;;;;;;;;;;;
2021/07/04 07:12:59;;;;;;;0.17;0.17;;;;;;;21.70;56.95;92407.59;6185162;23;20028;-93
2021/07/04 07:16:15;;;;;;;0.10;0.10;;;;;;;21.80;57.62;92414.22;6143484;23;20025;-94
2021/07/04 07:33:36;;;;;;;;;;;;;;;;;;;;;
2021/07/04 07:40:32;;;;;;;;;;;;;;;;;;;;;
2021/07/04 07:44:10;;;;;;;0.10;0.10;;;;;;;20.12;62.56;92391.34;6180191;23;20013;-92
2021/07/04 07:46:49;;;;;;;0.30;0.28;;;;;;;20.09;62.84;92380.66;6275050;22;20099;-90
2021/07/04 07:50:03;;;;;;;0.20;0.20;;;;;;;20.23;62.74;92390.81;6277149;22;20019;-92
2021/07/04 07:53:07;;;;;;;;;;;;;;;;;;;;;
2021/07/04 07:55:54;;;;;;;0.13;0.13;;;;;;;19.91;63.76;92396.22;6254909;22;20034;-94
2021/07/04 07:58:33;;;;;;;0.30;0.30;;;;;;;20.05;63.88;92401.06;6256006;22;20094;-94
2021/07/04 08:01:37;;;;;;;;;;;;;;;;;;;;;
2021/07/04 08:08:28;;;;;;;0.43;0.43;;;;;;;19.41;66.42;92395.81;6185935;23;20345;-92
2021/07/04 08:15:35;;;;;;;0.25;0.25;;;;;;;19.43;65.71;92404.22;6105192;23;20061;-94
2021/07/04 08:23:12;;;;;;;0.57;0.40;;;;;;;19.43;66.60;92412.16;6038554;23;20073;-93
2021/07/04 08:25:49;;;;;;;0.20;0.20;;;;;;;19.44;66.42;92419.00;6023432;23;20123;-91
2021/07/04 08:28:29;;;;;;;;;;;;;;;;;;;;;
2021/07/04 08:30:58;;;;;;;0.30;0.30;;;;;;;19.62;63.62;92411.47;6247500;22;20050;-92
2021/07/04 08:33:30;;;;;;;0.47;0.40;;;;;;;19.64;63.32;92424.41;6325472;22;20014;-92
2021/07/04 08:36:01;;;;;;;0.10;0.10;;;;;;;19.62;62.84;92419.44;6273081;22;20011;-92
2021/07/04 08:38:50;;;;;;;0.10;0.10;;;;;;;19.47;62.90;92414.91;6265042;22;20009;-91
2021/07/04 08:41:31;;;;;;;0.10;0.10;;;;;;;19.53;61.83;92414.28;6271225;22;20012;-91
2021/07/04 08:44:09;;;;;;;0.55;0.40;;;;;;;19.59;60.99;92411.38;6244820;22;20026;-92
2021/07/04 08:47:16;;;;;;;0.10;0.10;;;;;;;19.45;63.86;92417.13;6269446;22;20450;-93
2021/07/04 08:49:57;;;;;;;0.52;0.47;;;;;;;19.56;63.02;92413.59;6298917;22;20019;-93
2021/07/04 08:52:39;;;;;;;0.38;0.30;;;;;;;19.45;63.83;92409.16;6247832;22;20019;-92
2021/07/04 08:55:40;;;;;;;;;;;;;;;;;;;;;
2021/07/04 08:58:28;;;;;;;0.20;0.20;;;;;;;19.28;67.30;92408.38;6305649;22;20014;-93
2021/07/04 09:01:27;;;;;;;;;;;;;;;;;;;;;
2021/07/04 09:04:30;;;;;;;;;;;;;;;;;;;;;
2021/07/04 09:07:11;;;;;;;0.45;0.35;;;;;;;19.40;66.14;92401.47;6333937;22;20019;-95
2021/07/04 09:10:14;;;;;;;;;;;;;;;;;;;;;
2021/07/04 09:12:58;;;;;;;0.20;0.20;;;;;;;19.40;66.21;92390.84;6334839;22;20015;-94
2021/07/04 09:16:12;;;;;;;0.52;0.45;;;;;;;19.34;67.19;92399.06;6262996;22;20003;-95
2021/07/04 09:19:16;;;;;;;0.47;0.47;;;;;;;19.43;67.65;92409.53;6309401;22;20015;-94
2021/07/04 09:22:13;;;;;;;0.40;0.40;;;;;;;19.23;68.76;92399.91;6306036;22;20003;-94
2021/07/04 09:25:20;;;;;;;0.10;0.10;;;;;;;19.32;67.79;92401.28;6307553;22;20019;-96
2021/07/04 09:28:16;;;;;;;0.85;0.50;;;;;;;19.28;69.17;92400.44;6310622;22;20007;-94
2021/07/04 09:31:12;;;;;;;0.55;0.32;;;;;;;19.23;69.04;92405.19;6298098;22;20035;-93
2021/07/04 09:33:48;;;;;;;0.32;0.32;;;;;;;19.22;69.38;92407.09;6261776;22;20008;-93
2021/07/04 09:36:24;;;;;;;;;;;;;;;;;;;;;
2021/07/04 09:39:00;;;;;;;0.13;0.13;;;;;;;18.99;69.81;92406.13;6261822;22;20022;-93
2021/07/04 09:42:23;;;;;;;0.45;0.35;;;;;;;19.10;70.09;92407.19;6285832;22;20007;-93
2021/07/04 09:45:15;;;;;;;;;;;;;;;;;;;;;
2021/07/04 09:48:01;;;;;;;0.60;0.35;;;;;;;19.25;69.03;92397.69;6260438;22;20015;-93
2021/07/04 09:50:54;;;;;;;1.02;0.82;;;;;;;19.25;69.43;92398.47;6264352;22;20101;-92
2021/07/04 09:53:40;;;;;;;0.20;0.20;;;;;;;19.22;69.75;92414.28;6257224;22;20070;-92
2021/07/04 09:56:52;;;;;;;;;;;;;;;;;;;;;
2021/07/04 10:00:10;;;;;;;0.20;0.20;;;;;;;18.93;71.63;92411.66;6281970;22;20015;-92
2021/07/04 10:02:47;;;;;;;0.22;0.22;;;;;;;18.87;71.65;92413.03;6282738;22;20068;-94
2021/07/04 10:05:40;;;;;;;1.05;0.65;;;;;;;19.01;71.18;92409.22;6282025;22;20128;-92
2021/07/04 10:08:26;;;;;;;0.43;0.43;;;;;;;19.31;71.69;92413.00;6281114;22;20305;-92
2021/07/04 10:11:10;;;;;;;0.13;0.13;;;;;;;19.32;70.36;92393.34;6284343;22;20010;-92
2021/07/04 10:13:54;;;;;;;0.73;0.47;;;;;;;19.14;71.61;92397.44;6282661;22;20015;-89
2021/07/04 10:17:01;;;;;;;0.65;0.43;;;;;;;19.08;72.29;92399.56;6286430;22;20074;-93
2021/07/04 10:20:00;;;;;;;1.15;1.05;;;;;;;19.18;72.22;92398.28;6287674;22;20058;-92
2021/07/04 10:23:01;;;;;;;0.55;0.55;;;;;;;19.38;71.76;92382.44;6268517;22;20011;-91
2021/07/04 10:26:02;;;;;;;0.47;0.45;;;;;;;19.54;71.00;92386.66;6284179;22;20011;-93
2021/07/04 10:29:11;;;;;;;;;;;;;;;;;;;;;
2021/07/04 10:32:19;;;;;;;0.80;0.80;;;;;;;20.16;70.55;92384.22;6287250;22;20114;-92
2021/07/04 10:35:12;;;;;;;0.40;0.40;;;;;;;19.91;70.21;92390.91;6257004;22;20019;-92
2021/07/04 10:38:38;;;;;;;0.50;0.50;;;;;;;19.86;70.94;92385.84;6269717;22;20094;-92
2021/07/04 10:41:36;;;;;;;0.38;0.32;;;;;;;19.46;72.52;92400.09;6244134;22;20015;-91
2021/07/04 10:45:23;;;;;;;;;;;;;;;;;;;;;
2021/07/04 10:48:19;;;;;;;0.68;0.30;;;;;;;19.03;73.54;92375.94;6277773;22;20015;-92
2021/07/04 10:51:25;;;;;;;0.28;0.28;;;;;;;18.74;75.07;92392.97;6254584;22;20039;-92
2021/07/04 10:55:18;;;;;;;0.30;0.30;;;;;;;18.78;75.49;92387.75;6194166;23;20083;-91
2021/07/04 10:58:25;;;;;;;0.52;0.50;;;;;;;18.90;75.07;92374.47;6254458;22;20090;-92
2021/07/04 11:01:55;;;;;;;;;;;;;;;;;;;;;
2021/07/04 11:04:37;;;;;;;0.22;0.22;;;;;;;19.05;75.08;92364.97;6309036;22;20375;-92
2021/07/04 11:10:59;;;;;;;;;;;;;;;;;;;;;
2021/07/04 11:13:38;;;;;;;1.70;0.82;;;;;;;19.60;73.21;92349.97;6278246;22;20015;-92
2021/07/04 11:16:38;;;;;;;;;;;;;;;;;;;;;
2021/07/04 11:20:09;;;;;;;0.50;0.50;;;;;;;19.13;74.46;92332.19;6310527;22;20083;-91
2021/07/04 11:23:26;;;;;;;;;;;;;;;;;;;;;
2021/07/04 11:26:30;;;;;;;;;;;;;;;;;;;;;
2021/07/04 11:29:37;;;;;;;;;;;;;;;;;;;;;
2021/07/04 11:32:34;;;;;;;;;;;;;;;;;;;;;
2021/07/04 11:35:40;;;;;;;0.45;0.35;;;;;;;20.32;69.96;92298.34;6257093;22;20322;-92
2021/07/04 11:45:44;;;;;;;0.43;0.40;;;;;;;20.17;68.41;92282.16;6269852;22;20015;-92
2021/07/04 11:48:40;;;;;;;0.17;0.17;;;;;;;20.58;67.79;92274.56;6288430;22;20103;-92
2021/07/04 11:55:52;;;;;;;;;;;;;;;;;;;;;
2021/07/04 12:02:34;;;;;;;0.88;0.63;;;;;;;18.66;78.04;92293.91;6162525;22;20027;-93
2021/07/04 12:05:17;;;;;;;0.73;0.57;;;;;;;18.29;79.05;92290.69;6264018;22;20094;-93
2021/07/04 12:08:19;;;;;;;0.45;0.40;;;;;;;17.84;76.35;92291.72;6286245;22;20094;-93
2021/07/04 12:12:13;;;;;;;;;;;;;;;;;;;;;
2021/07/04 12:15:29;;;;;;;;;;;;;;;;;;;;;
2021/07/04 12:22:47;;;;;;;0.10;0.10;;;;;;;16.87;69.12;92277.47;6069373;23;20514;-92
2021/07/04 12:29:16;;;;;;;;;;;;;;;;;;;;;
2021/07/04 12:47:24;;;;;;;0.22;0.20;;;;;;;17.42;76.79;92276.13;6281532;22;20083;-92
2021/07/04 13:01:51;;;;;;;0.30;0.30;;;;;;;17.94;74.47;92264.75;6187996;23;20024;-79
2021/07/04 13:04:17;;;;;;;0.20;0.20;;;;;;;18.09;72.81;92261.41;6185623;23;20020;-80
2021/07/04 13:07:01;;;;;;;0.45;0.30;;;;;;;18.20;73.38;92251.09;6186925;23;20032;-79
2021/07/04 13:09:34;;;;;;;0.28;0.28;;;;;;;18.20;72.33;92251.09;6187308;23;20432;-80
2021/07/04 13:12:20;;;;;;;0.20;0.20;;;;;;;18.24;71.58;92254.59;6186528;23;20021;-79
2021/07/04 13:14:50;;;;;;;0.20;0.20;;;;;;;18.31;71.12;92246.84;6187425;23;20483;-79
2021/07/04 13:17:22;;;;;;;0.30;0.30;;;;;;;18.48;72.70;92229.06;6186482;23;20020;-79
2021/07/04 13:19:51;;;;;;;0.28;0.25;;;;;;;18.66;72.29;92234.81;6186789;23;20452;-80
2021/07/04 13:22:24;;;;;;;0.68;0.45;;;;;;;18.77;72.33;92224.47;6185236;23;20011;-80
2021/07/04 13:24:54;;;;;;;0.20;0.20;;;;;;;18.91;72.25;92222.97;6186495;23;20372;-79
2021/07/04 13:27:31;;;;;;;0.28;0.28;;;;;;;19.03;72.50;92216.03;6186174;23;20023;-79
2021/07/04 13:30:08;;;;;;;0.22;0.20;;;;;;;19.19;73.32;92214.09;6212650;23;20008;-79
2021/07/04 13:32:58;;;;;;;0.22;0.22;;;;;;;19.42;72.28;92221.41;6187491;23;20429;-79
2021/07/04 13:35:34;;;;;;;0.13;0.13;;;;;;;19.68;71.33;92210.97;6212550;23;20013;-79
2021/07/04 13:38:06;;;;;;;0.10;0.10;;;;;;;19.83;70.34;92205.94;6211791;23;20012;-83
2021/07/04 13:40:34;;;;;;;0.45;0.30;;;;;;;19.09;74.19;92199.50;6162187;23;20017;-79
2021/07/04 13:43:00;;;;;;;0.20;0.20;;;;;;;18.63;73.99;92198.41;6186169;23;20491;-82
2021/07/04 13:45:41;;;;;;;0.32;0.32;;;;;;;19.16;75.63;92206.06;6186766;23;20012;-78
2021/07/04 13:48:09;;;;;;;0.50;0.50;;;;;;;19.19;71.75;92200.84;6213492;23;20009;-80
2021/07/04 13:50:36;;;;;;;0.28;0.28;;;;;;;19.18;72.13;92187.91;6187839;23;20325;-80
2021/07/04 13:53:04;;;;;;;0.30;0.30;;;;;;;19.35;72.06;92185.63;6210347;23;20012;-80
2021/07/04 13:55:30;;;;;;;0.22;0.22;;;;;;;19.18;70.43;92175.41;6185601;23;20141;-79
2021/07/04 13:57:56;;;;;;;0.20;0.20;;;;;;;19.02;72.97;92179.97;6185596;23;20040;-80
2021/07/04 14:00:22;;;;;;;0.20;0.20;;;;;;;19.08;74.53;92189.97;6257136;22;20498;-79
2021/07/04 14:02:49;;;;;;;3.85;0.40;;;;;;;18.47;73.46;92196.50;6273126;22;20465;-78
2021/07/04 14:05:15;;;;;;;0.70;0.68;;;;;;;18.63;72.30;92198.41;6272422;22;20098;-78
2021/07/04 14:07:40;;;;;;;0.13;0.13;;;;;;;18.57;73.34;92197.88;6221083;22;20038;-78
2021/07/04 14:10:08;;;;;;;0.30;0.30;;;;;;;18.51;73.31;92197.38;6246571;22;20018;-79
2021/07/04 14:12:33;;;;;;;0.20;0.20;;;;;;;18.30;74.86;92187.00;6273777;22;20095;-78
2021/07/04 14:14:59;;;;;;;0.28;0.28;;;;;;;18.43;73.13;92198.28;6221350;22;20447;-77
2021/07/04 14:17:26;;;;;;;0.13;0.13;;;;;;;18.47;74.02;92195.75;6220632;22;20018;-79
2021/07/04 14:19:53;;;;;;;0.10;0.10;;;;;;;18.30;73.67;92200.25;6246219;22;20020;-78
2021/07/04 14:22:20;;;;;;;0.30;0.30;;;;;;;18.08;74.42;92211.41;6272860;22;19999;-78
2021/07/04 14:24:47;;;;;;;0.20;0.20;;;;;;;18.45;71.71;92205.91;6221072;22;20477;-79
2021/07/04 14:27:12;;;;;;;0.20;0.20;;;;;;;17.72;75.25;92209.66;6246292;22;20084;-78
2021/07/04 14:29:38;;;;;;;0.20;0.20;;;;;;;17.75;75.58;92209.00;6246248;22;20515;-80
2021/07/04 14:32:05;;;;;;;0.13;0.13;;;;;;;17.46;78.20;92203.69;6244628;22;20027;-79
2021/07/04 14:34:31;;;;;;;0.22;0.22;;;;;;;17.41;78.26;92211.84;6245660;22;20459;-80
2021/07/04 14:36:56;;;;;;;0.10;0.10;;;;;;;16.80;79.53;92215.34;6246265;22;20022;-79
2021/07/04 14:39:22;;;;;;;0.10;0.10;;;;;;;16.47;80.58;92212.00;6272643;22;20107;-79
2021/07/04 14:41:48;;;;;;;0.32;0.30;;;;;;;16.28;82.26;92207.22;6244553;22;20019;-77
2021/07/04 14:44:13;;;;;;;0.10;0.10;;;;;;;16.28;83.20;92209.88;6270825;22;20022;-78
2021/07/04 14:46:41;;;;;;;0.40;0.40;;;;;;;16.24;83.98;92212.41;6244837;22;20067;-80
2021/07/04 14:49:08;;;;;;;0.10;0.10;;;;;;;16.28;83.48;92209.88;6244330;22;20008;-79
2021/07/04 14:51:40;;;;;;;0.10;0.10;;;;;;;16.16;83.25;92208.75;6271321;22;20838;-79
2021/07/04 14:54:06;;;;;;;0.65;0.30;;;;;;;15.98;83.50;92213.41;6243573;22;20007;-78
2021/07/04 14:56:32;;;;;;;0.28;0.25;;;;;;;15.96;83.57;92218.28;6273773;22;20037;-79
2021/07/04 14:58:58;;;;;;;0.10;0.10;;;;;;;16.00;82.90;92221.03;6271692;22;20073;-79
2021/07/04 15:01:25;;;;;;;0.10;0.10;;;;;;;15.98;84.17;92218.69;6271456;22;20118;-80
2021/07/04 15:03:52;;;;;;;0.20;0.20;;;;;;;15.91;84.75;92221.09;6246253;22;20351;-79
2021/07/04 15:06:18;;;;;;;0.17;0.17;;;;;;;15.89;84.09;92219.88;6244293;22;20212;-79
2021/07/04 15:08:45;;;;;;;0.30;0.30;;;;;;;15.81;84.96;92213.59;6272815;22;20028;-79
2021/07/04 15:11:12;;;;;;;0.10;0.10;;;;;;;15.81;85.04;92213.59;6245029;22;20051;-80
2021/07/04 15:13:38;;;;;;;0.10;0.10;;;;;;;15.86;86.51;92221.31;6270625;22;20019;-79
2021/07/04 15:16:04;;;;;;;0.20;0.20;;;;;;;15.92;86.13;92220.03;6273838;22;20345;-80
2021/07/04 15:18:30;;;;;;;0.10;0.10;;;;;;;16.02;84.39;92222.25;6246053;22;20291;-79
2021/07/04 15:20:57;;;;;;;0.13;0.13;;;;;;;16.05;80.93;92227.97;6246479;22;20047;-81
2021/07/04 15:23:24;;;;;;;0.15;0.15;;;;;;;15.93;82.07;92241.91;6273425;22;20015;-79
2021/07/04 15:25:50;;;;;;;0.30;0.30;;;;;;;15.87;83.00;92265.06;6272268;22;20019;-79
2021/07/04 15:28:16;;;;;;;0.30;0.30;;;;;;;15.87;82.88;92265.06;6273332;22;20018;-80
2021/07/04 15:30:48;;;;;;;0.17;0.17;;;;;;;15.89;83.24;92262.13;6249356;22;20034;-80
2021/07/04 15:33:14;;;;;;;0.10;0.10;;;;;;;15.90;83.56;92264.44;6279613;22;20008;-80
2021/07/04 15:35:40;;;;;;;0.10;0.10;;;;;;;15.87;81.59;92259.78;6227013;22;20066;-80
2021/07/04 15:38:07;;;;;;;0.20;0.20;;;;;;;15.66;79.93;92261.66;6251339;22;20071;-80
2021/07/04 15:40:36;;;;;;;0.28;0.28;;;;;;;15.51;80.00;92269.03;6224379;22;20115;-80
2021/07/04 15:43:03;;;;;;;0.10;0.10;;;;;;;15.48;80.96;92271.56;6252031;22;20352;-80
2021/07/04 15:45:29;;;;;;;0.10;0.10;;;;;;;15.45;79.77;92283.53;6250925;22;20018;-80
2021/07/04 15:47:56;;;;;;;0.10;0.10;;;;;;;15.44;80.75;92292.53;6227383;22;20004;-81
2021/07/04 15:50:22;;;;;;;0.30;0.30;;;;;;;15.47;82.67;92305.09;6226559;22;20105;-81
2021/07/04 15:52:48;;;;;;;0.20;0.20;;;;;;;15.50;83.93;92311.59;6251377;22;20014;-81
2021/07/04 15:55:15;;;;;;;0.30;0.30;;;;;;;15.54;86.59;92305.34;6280161;22;20018;-80
2021/07/04 15:57:47;;;;;;;0.20;0.20;;;;;;;15.58;87.11;92294.91;6227339;22;20027;-80
2021/07/04 16:00:16;;;;;;;0.15;0.15;;;;;;;15.63;87.35;92292.09;6201193;22;20023;-81
2021/07/04 16:02:44;;;;;;;0.20;0.20;;;;;;;15.62;87.05;92293.94;6280336;22;20017;-81
2021/07/04 16:05:10;;;;;;;0.10;0.10;;;;;;;15.62;86.27;92295.81;6281326;22;20039;-83
2021/07/04 16:07:36;;;;;;;0.47;0.43;;;;;;;15.61;85.19;92294.28;6228545;22;20062;-80
2021/07/04 16:10:04;;;;;;;0.55;0.30;;;;;;;15.61;84.97;92283.75;6228269;22;20011;-81
2021/07/04 16:12:33;;;;;;;0.32;0.32;;;;;;;15.59;84.79;92265.59;6280354;22;20008;-80
2021/07/04 16:15:07;;;;;;;0.20;0.20;;;;;;;15.56;83.19;92250.41;6254377;22;20058;-80
2021/07/04 16:17:34;;;;;;;0.15;0.15;;;;;;;15.58;82.52;92247.44;6253485;22;20030;-80
2021/07/04 16:20:07;;;;;;;0.10;0.10;;;;;;;15.41;83.83;92245.72;6228424;22;20019;-80
2021/07/04 16:22:37;;;;;;;0.30;0.30;;;;;;;15.30;84.87;92241.91;6251287;22;20022;-80
2021/07/04 16:25:07;;;;;;;0.10;0.10;;;;;;;15.37;84.17;92244.78;6281235;22;20087;-81
2021/07/04 16:27:41;;;;;;;0.20;0.20;;;;;;;15.48;84.26;92245.19;6280072;22;20007;-81
2021/07/04 16:30:13;;;;;;;0.20;0.20;;;;;;;15.66;84.87;92240.56;6229038;22;20007;-81
2021/07/04 16:32:40;;;;;;;0.20;0.20;;;;;;;15.97;84.78;92233.00;6255361;22;20012;-80
2021/07/04 16:35:11;;;;;;;0.20;0.20;;;;;;;16.12;84.95;92218.44;6278130;22;20004;-80
2021/07/04 16:37:40;;;;;;;0.52;0.40;;;;;;;16.48;82.50;92210.88;6252571;22;20043;-82
2021/07/04 16:40:18;;;;;;;0.30;0.30;;;;;;;16.76;77.69;92208.38;6228195;22;20008;-81
2021/07/04 16:42:45;;;;;;;0.30;0.30;;;;;;;16.95;76.28;92205.97;6250719;22;20016;-80